Photometre #44[NE_1.6] Rome_La_Sapienza AOT

File : 20220827_44.hum

27/08/2022,05:19:13,TEMP=24.3,BA=5.68,STAT.A=6.5,ExtBa=13.36
27/08/2022,05:22:39,TEMP=24.5,BA=5.52,STAT.A=6.5,ExtBa=13.28
27/08/2022,05:26:40,TEMP=24.6,BA=5.52,STAT.A=6.5,ExtBa=13.30
27/08/2022,05:31:26,TEMP=24.6,BA=5.64,STAT.A=6.5,ExtBa=13.32
27/08/2022,05:37:09,TEMP=24.7,BA=5.64,STAT.A=6.5,ExtBa=13.32
27/08/2022,05:44:10,TEMP=24.9,BA=5.60,STAT.A=6.5,ExtBa=13.35
27/08/2022,05:52:58,TEMP=25.2,BA=5.64,STAT.B=6.5,ExtBa=13.36
27/08/2022,06:06:18,TEMP=26.1,BA=5.52,STAT.A=6.5,ExtBa=12.96
27/08/2022,06:08:44,TEMP=26.4,BA=5.52,STAT.A=6.5,ExtBa=12.98
27/08/2022,06:10:58,TEMP=26.6,BA=5.48,STAT.A=6.5,ExtBa=12.98
27/08/2022,06:13:15,TEMP=26.8,BA=5.48,STAT.A=6.5,ExtBa=12.98
27/08/2022,06:19:49,TEMP=27.0,BA=5.48,STAT.C=6.5,ExtBa=13.17
27/08/2022,06:39:06,TEMP=28.2,BA=5.48,STAT.A=6.5,ExtBa=12.95
27/08/2022,06:41:29,TEMP=28.4,BA=5.48,STAT.A=6.5,ExtBa=12.94
27/08/2022,06:47:40,TEMP=28.6,BA=5.48,STAT.A=6.5,ExtBa=13.14
27/08/2022,07:00:49,TEMP=29.6,BA=5.60,STAT.A=6.5,ExtBa=13.33
27/08/2022,07:17:07,TEMP=30.6,BA=5.60,STAT.B=6.5,ExtBa=13.40
27/08/2022,07:51:04,TEMP=32.2,BA=5.56,STAT.B=6.5,ExtBa=13.39
27/08/2022,08:02:39,TEMP=32.1,BA=5.48,STAT.D=6.5,ExtBa=12.96
27/08/2022,08:12:11,TEMP=31.1,BA=5.52,STAT.F,ExtBa=13.24
27/08/2022,08:30:20,TEMP=32.4,BA=5.44,STAT.D=6.5,ExtBa=12.95
27/08/2022,08:42:10,TEMP=31.4,BA=5.48,STAT.D=6.5,ExtBa=13.28
27/08/2022,08:57:10,TEMP=30.9,BA=5.48,STAT.D=6.5,ExtBa=13.35
27/08/2022,09:12:12,TEMP=32.7,BA=5.48,STAT.F,ExtBa=13.38
27/08/2022,09:27:10,TEMP=33.9,BA=5.48,STAT.D=6.5,ExtBa=13.32
27/08/2022,09:42:10,TEMP=34.7,BA=5.48,STAT.D=6.5,ExtBa=13.37
27/08/2022,09:57:10,TEMP=35.0,BA=5.44,STAT.D=6.5,ExtBa=13.38
27/08/2022,10:12:12,TEMP=34.5,BA=5.44,STAT.F,ExtBa=13.38
27/08/2022,10:27:10,TEMP=35.2,BA=5.44,STAT.D=6.5,ExtBa=13.33
27/08/2022,10:42:10,TEMP=34.9,BA=5.44,STAT.D=6.5,ExtBa=13.38
27/08/2022,10:57:10,TEMP=35.1,BA=5.44,STAT.D=6.5,ExtBa=13.38
27/08/2022,11:12:12,TEMP=33.2,BA=5.44,STAT.F,ExtBa=13.38
27/08/2022,11:27:10,TEMP=33.8,BA=5.40,STAT.D=6.5,ExtBa=13.33
27/08/2022,11:42:10,TEMP=33.7,BA=5.44,STAT.D=6.5,ExtBa=13.35
27/08/2022,11:57:10,TEMP=33.8,BA=5.44,STAT.D=6.5,ExtBa=13.33
27/08/2022,12:12:12,TEMP=33.6,BA=5.44,STAT.F,ExtBa=13.31
27/08/2022,12:27:10,TEMP=33.0,BA=5.40,STAT.D=6.5,ExtBa=13.32
27/08/2022,12:42:10,TEMP=33.3,BA=5.44,STAT.D=6.5,ExtBa=13.33
27/08/2022,12:57:10,TEMP=33.8,BA=5.44,STAT.D=6.5,ExtBa=13.31
27/08/2022,13:12:12,TEMP=33.9,BA=5.48,STAT.F,ExtBa=13.29
27/08/2022,13:27:10,TEMP=34.4,BA=5.40,STAT.D=6.5,ExtBa=13.33
27/08/2022,13:42:10,TEMP=31.5,BA=5.48,STAT.D=6.5,ExtBa=13.32
27/08/2022,13:57:10,TEMP=29.6,BA=5.48,STAT.D=6.5,ExtBa=13.30
27/08/2022,14:12:11,TEMP=28.4,BA=5.48,STAT.F,ExtBa=13.29
27/08/2022,14:27:09,TEMP=27.8,BA=5.48,STAT.D=6.5,ExtBa=13.29
27/08/2022,14:33:18,TEMP=28.0,BA=5.48,STAT.B=6.5,ExtBa=13.29
27/08/2022,15:07:17,TEMP=30.9,BA=5.52,STAT.B=6.5,ExtBa=13.41
27/08/2022,15:23:35,TEMP=30.4,BA=5.52,STAT.A=6.5,ExtBa=13.23
27/08/2022,15:36:40,TEMP=30.9,BA=5.52,STAT.A=6.5,ExtBa=13.40
27/08/2022,15:47:32,TEMP=30.7,BA=5.52,STAT.A=6.5,ExtBa=13.42
27/08/2022,15:56:41,TEMP=30.8,BA=5.48,STAT.A=6.5,ExtBa=13.40
27/08/2022,16:04:31,TEMP=30.5,BA=5.52,STAT.C=6.5,ExtBa=13.38
27/08/2022,16:11:18,TEMP=30.1,BA=5.56,STAT.A=6.5,ExtBa=13.30
27/08/2022,16:17:15,TEMP=30.0,BA=5.56,STAT.A=6.5,ExtBa=13.31
27/08/2022,16:22:30,TEMP=29.8,BA=5.52,STAT.A=6.5,ExtBa=13.34
27/08/2022,16:27:10,TEMP=29.8,BA=5.52,STAT.A=6.5,ExtBa=13.27
27/08/2022,16:31:22,TEMP=29.8,BA=5.52,STAT.B=6.5,ExtBa=13.23
27/08/2022,16:42:24,TEMP=29.5,BA=5.40,STAT.A=6.5,ExtBa=12.97
27/08/2022,16:47:11,TEMP=29.3,BA=5.40,STAT.A=6.5,ExtBa=13.16
27/08/2022,16:52:54,TEMP=29.0,BA=5.52,STAT.A=6.5,ExtBa=13.28
27/08/2022,16:57:40,TEMP=28.8,BA=5.52,STAT.A=6.5,ExtBa=13.32
27/08/2022,17:01:41,TEMP=28.7,BA=5.52,STAT.A=6.5,ExtBa=13.33
27/08/2022,17:05:07,TEMP=28.6,BA=5.52,STAT.A=6.5,ExtBa=13.33